sensor_id;sensor_type;location;lat;lon;timestamp;P1;durP1;ratioP1;P2;durP2;ratioP2
78854;SDS011;68206;59.956;30.234;2023-11-19T00:00:28;4.47;;;2.33;;
78854;SDS011;68206;59.956;30.234;2023-11-19T00:02:56;3.75;;;1.80;;
78854;SDS011;68206;59.956;30.234;2023-11-19T00:05:24;3.63;;;1.95;;
78854;SDS011;68206;59.956;30.234;2023-11-19T00:07:53;2.72;;;1.80;;
78854;SDS011;68206;59.956;30.234;2023-11-19T00:10:21;4.18;;;1.90;;
78854;SDS011;68206;59.956;30.234;2023-11-19T00:12:51;2.35;;;1.58;;
78854;SDS011;68206;59.956;30.234;2023-11-19T00:15:19;5.50;;;2.20;;
78854;SDS011;68206;59.956;30.234;2023-11-19T00:17:47;2.78;;;1.70;;
78854;SDS011;68206;59.956;30.234;2023-11-19T00:20:17;4.68;;;2.22;;
78854;SDS011;68206;59.956;30.234;2023-11-19T00:22:46;4.60;;;2.00;;
78854;SDS011;68206;59.956;30.234;2023-11-19T00:25:18;3.35;;;2.00;;
78854;SDS011;68206;59.956;30.234;2023-11-19T00:27:48;1.70;;;1.10;;
78854;SDS011;68206;59.956;30.234;2023-11-19T00:30:19;2.60;;;1.63;;
78854;SDS011;68206;59.956;30.234;2023-11-19T00:32:47;3.40;;;1.83;;
78854;SDS011;68206;59.956;30.234;2023-11-19T00:35:15;4.13;;;1.50;;
78854;SDS011;68206;59.956;30.234;2023-11-19T00:37:43;4.18;;;2.00;;
78854;SDS011;68206;59.956;30.234;2023-11-19T00:40:14;4.05;;;2.25;;
78854;SDS011;68206;59.956;30.234;2023-11-19T00:42:45;4.28;;;2.17;;
78854;SDS011;68206;59.956;30.234;2023-11-19T00:45:14;2.40;;;1.70;;
78854;SDS011;68206;59.956;30.234;2023-11-19T00:47:44;3.78;;;1.77;;
78854;SDS011;68206;59.956;30.234;2023-11-19T00:50:12;4.75;;;1.90;;
78854;SDS011;68206;59.956;30.234;2023-11-19T00:52:40;2.78;;;1.73;;
78854;SDS011;68206;59.956;30.234;2023-11-19T00:55:09;2.45;;;1.83;;
78854;SDS011;68206;59.956;30.234;2023-11-19T00:57:39;3.90;;;2.33;;
78854;SDS011;68206;59.956;30.234;2023-11-19T01:00:08;2.78;;;1.73;;
78854;SDS011;68206;59.956;30.234;2023-11-19T01:02:47;3.42;;;1.80;;
78854;SDS011;68206;59.956;30.234;2023-11-19T01:05:18;2.85;;;1.60;;
78854;SDS011;68206;59.956;30.234;2023-11-19T01:07:50;8.55;;;2.28;;
78854;SDS011;68206;59.956;30.234;2023-11-19T01:10:21;4.70;;;1.90;;
78854;SDS011;68206;59.956;30.234;2023-11-19T01:12:51;1.83;;;1.33;;
78854;SDS011;68206;59.956;30.234;2023-11-19T01:15:20;4.22;;;2.40;;
78854;SDS011;68206;59.956;30.234;2023-11-19T01:17:51;4.60;;;2.45;;
78854;SDS011;68206;59.956;30.234;2023-11-19T01:20:20;2.95;;;2.08;;
78854;SDS011;68206;59.956;30.234;2023-11-19T01:22:48;4.00;;;1.92;;
78854;SDS011;68206;59.956;30.234;2023-11-19T01:25:16;2.13;;;1.55;;
78854;SDS011;68206;59.956;30.234;2023-11-19T01:27:45;2.90;;;1.58;;
78854;SDS011;68206;59.956;30.234;2023-11-19T01:30:13;3.88;;;2.00;;
78854;SDS011;68206;59.956;30.234;2023-11-19T01:32:42;3.08;;;1.73;;
78854;SDS011;68206;59.956;30.234;2023-11-19T01:35:11;3.17;;;1.45;;
78854;SDS011;68206;59.956;30.234;2023-11-19T01:37:40;3.00;;;2.05;;
78854;SDS011;68206;59.956;30.234;2023-11-19T01:40:09;2.85;;;1.40;;
78854;SDS011;68206;59.956;30.234;2023-11-19T01:42:38;3.15;;;2.00;;
78854;SDS011;68206;59.956;30.234;2023-11-19T01:45:07;3.88;;;2.20;;
78854;SDS011;68206;59.956;30.234;2023-11-19T01:47:37;2.53;;;1.83;;
78854;SDS011;68206;59.956;30.234;2023-11-19T01:50:06;2.60;;;1.73;;
78854;SDS011;68206;59.956;30.234;2023-11-19T01:52:37;3.72;;;1.80;;
78854;SDS011;68206;59.956;30.234;2023-11-19T01:55:06;2.45;;;1.83;;
78854;SDS011;68206;59.956;30.234;2023-11-19T01:57:39;3.70;;;1.60;;
78854;SDS011;68206;59.956;30.234;2023-11-19T02:00:09;3.35;;;1.73;;
78854;SDS011;68206;59.956;30.234;2023-11-19T02:02:39;2.63;;;1.58;;
78854;SDS011;68206;59.956;30.234;2023-11-19T02:05:09;3.22;;;2.03;;
78854;SDS011;68206;59.956;30.234;2023-11-19T02:07:39;6.13;;;2.00;;
78854;SDS011;68206;59.956;30.234;2023-11-19T02:10:08;3.90;;;2.13;;
78854;SDS011;68206;59.956;30.234;2023-11-19T02:12:41;3.97;;;1.83;;
78854;SDS011;68206;59.956;30.234;2023-11-19T02:15:10;2.28;;;1.50;;
78854;SDS011;68206;59.956;30.234;2023-11-19T02:17:39;5.40;;;2.00;;
78854;SDS011;68206;59.956;30.234;2023-11-19T02:20:08;2.85;;;1.85;;
78854;SDS011;68206;59.956;30.234;2023-11-19T02:22:40;3.75;;;1.75;;
78854;SDS011;68206;59.956;30.234;2023-11-19T02:25:11;2.92;;;1.52;;
78854;SDS011;68206;59.956;30.234;2023-11-19T02:27:48;2.80;;;1.70;;
78854;SDS011;68206;59.956;30.234;2023-11-19T02:30:24;1.88;;;1.25;;
78854;SDS011;68206;59.956;30.234;2023-11-19T02:32:53;2.42;;;1.67;;
78854;SDS011;68206;59.956;30.234;2023-11-19T02:35:24;2.80;;;1.75;;
78854;SDS011;68206;59.956;30.234;2023-11-19T02:37:54;3.95;;;1.67;;
78854;SDS011;68206;59.956;30.234;2023-11-19T02:40:23;3.55;;;2.00;;
78854;SDS011;68206;59.956;30.234;2023-11-19T02:42:53;3.75;;;1.77;;
78854;SDS011;68206;59.956;30.234;2023-11-19T02:45:23;4.55;;;1.80;;
78854;SDS011;68206;59.956;30.234;2023-11-19T02:47:54;2.35;;;1.65;;
78854;SDS011;68206;59.956;30.234;2023-11-19T02:50:22;2.28;;;1.50;;
78854;SDS011;68206;59.956;30.234;2023-11-19T02:52:53;2.75;;;1.80;;
78854;SDS011;68206;59.956;30.234;2023-11-19T02:55:23;3.50;;;1.67;;
78854;SDS011;68206;59.956;30.234;2023-11-19T02:57:56;3.58;;;1.52;;
78854;SDS011;68206;59.956;30.234;2023-11-19T03:00:26;3.20;;;1.52;;
78854;SDS011;68206;59.956;30.234;2023-11-19T03:03:02;2.63;;;1.30;;
78854;SDS011;68206;59.956;30.234;2023-11-19T03:05:45;4.07;;;2.42;;
78854;SDS011;68206;59.956;30.234;2023-11-19T03:08:14;2.88;;;1.58;;
78854;SDS011;68206;59.956;30.234;2023-11-19T03:10:46;2.72;;;1.48;;
78854;SDS011;68206;59.956;30.234;2023-11-19T03:13:16;3.28;;;1.80;;
78854;SDS011;68206;59.956;30.234;2023-11-19T03:15:45;3.22;;;1.80;;
78854;SDS011;68206;59.956;30.234;2023-11-19T03:18:13;2.58;;;1.40;;
78854;SDS011;68206;59.956;30.234;2023-11-19T03:20:42;3.28;;;1.85;;
78854;SDS011;68206;59.956;30.234;2023-11-19T03:23:10;2.17;;;1.42;;
78854;SDS011;68206;59.956;30.234;2023-11-19T03:25:39;2.20;;;1.67;;
78854;SDS011;68206;59.956;30.234;2023-11-19T03:28:07;4.20;;;2.05;;
78854;SDS011;68206;59.956;30.234;2023-11-19T03:30:37;3.30;;;1.33;;
78854;SDS011;68206;59.956;30.234;2023-11-19T03:33:06;14.02;;;2.20;;
78854;SDS011;68206;59.956;30.234;2023-11-19T03:35:34;3.17;;;1.33;;
78854;SDS011;68206;59.956;30.234;2023-11-19T03:38:02;3.03;;;1.40;;
78854;SDS011;68206;59.956;30.234;2023-11-19T03:40:31;3.67;;;1.50;;
78854;SDS011;68206;59.956;30.234;2023-11-19T03:42:59;2.28;;;1.35;;
78854;SDS011;68206;59.956;30.234;2023-11-19T03:45:28;4.85;;;1.70;;
78854;SDS011;68206;59.956;30.234;2023-11-19T03:47:57;4.65;;;1.85;;
78854;SDS011;68206;59.956;30.234;2023-11-19T03:50:26;4.25;;;1.70;;
78854;SDS011;68206;59.956;30.234;2023-11-19T03:52:54;2.65;;;1.50;;
78854;SDS011;68206;59.956;30.234;2023-11-19T03:55:22;2.55;;;1.48;;
78854;SDS011;68206;59.956;30.234;2023-11-19T03:57:50;3.20;;;1.55;;
78854;SDS011;68206;59.956;30.234;2023-11-19T04:00:19;2.17;;;1.23;;
78854;SDS011;68206;59.956;30.234;2023-11-19T04:02:48;3.05;;;1.73;;
78854;SDS011;68206;59.956;30.234;2023-11-19T04:05:18;5.63;;;1.70;;
78854;SDS011;68206;59.956;30.234;2023-11-19T04:07:46;4.05;;;1.40;;
78854;SDS011;68206;59.956;30.234;2023-11-19T04:10:14;4.88;;;1.88;;
78854;SDS011;68206;59.956;30.234;2023-11-19T04:12:44;5.13;;;1.80;;
78854;SDS011;68206;59.956;30.234;2023-11-19T04:15:14;2.17;;;1.55;;
78854;SDS011;68206;59.956;30.234;2023-11-19T04:17:43;6.43;;;1.80;;
78854;SDS011;68206;59.956;30.234;2023-11-19T04:20:12;2.20;;;1.40;;
78854;SDS011;68206;59.956;30.234;2023-11-19T04:22:43;3.60;;;1.60;;
78854;SDS011;68206;59.956;30.234;2023-11-19T04:25:11;5.25;;;1.55;;
78854;SDS011;68206;59.956;30.234;2023-11-19T04:27:40;4.13;;;1.92;;
78854;SDS011;68206;59.956;30.234;2023-11-19T04:30:09;3.28;;;2.13;;
78854;SDS011;68206;59.956;30.234;2023-11-19T04:32:38;3.15;;;1.60;;
78854;SDS011;68206;59.956;30.234;2023-11-19T04:35:07;2.80;;;1.70;;
78854;SDS011;68206;59.956;30.234;2023-11-19T04:37:36;2.40;;;1.50;;
78854;SDS011;68206;59.956;30.234;2023-11-19T04:40:07;2.80;;;1.67;;
78854;SDS011;68206;59.956;30.234;2023-11-19T04:42:37;3.78;;;2.00;;
78854;SDS011;68206;59.956;30.234;2023-11-19T04:45:07;3.67;;;1.63;;
78854;SDS011;68206;59.956;30.234;2023-11-19T04:47:37;2.60;;;1.70;;
78854;SDS011;68206;59.956;30.234;2023-11-19T04:50:06;5.32;;;1.88;;
78854;SDS011;68206;59.956;30.234;2023-11-19T04:52:38;5.28;;;1.70;;
78854;SDS011;68206;59.956;30.234;2023-11-19T04:55:10;2.42;;;1.70;;
78854;SDS011;68206;59.956;30.234;2023-11-19T04:57:41;6.70;;;2.10;;
78854;SDS011;68206;59.956;30.234;2023-11-19T05:00:10;3.70;;;1.98;;
78854;SDS011;68206;59.956;30.234;2023-11-19T05:02:43;3.88;;;2.03;;
78854;SDS011;68206;59.956;30.234;2023-11-19T05:05:12;12.85;;;2.25;;
78854;SDS011;68206;59.956;30.234;2023-11-19T05:07:41;3.13;;;2.08;;
78854;SDS011;68206;59.956;30.234;2023-11-19T05:10:10;2.28;;;1.60;;
78854;SDS011;68206;59.956;30.234;2023-11-19T05:12:39;4.50;;;2.10;;
78854;SDS011;68206;59.956;30.234;2023-11-19T05:15:08;6.38;;;2.35;;
78854;SDS011;68206;59.956;30.234;2023-11-19T05:17:38;9.27;;;2.47;;
78854;SDS011;68206;59.956;30.234;2023-11-19T05:20:07;4.03;;;2.33;;
78854;SDS011;68206;59.956;30.234;2023-11-19T05:25:09;2.58;;;1.92;;
78854;SDS011;68206;59.956;30.234;2023-11-19T05:27:39;6.30;;;2.35;;
78854;SDS011;68206;59.956;30.234;2023-11-19T05:30:07;5.60;;;2.40;;
78854;SDS011;68206;59.956;30.234;2023-11-19T05:32:37;4.63;;;2.38;;
78854;SDS011;68206;59.956;30.234;2023-11-19T05:35:07;5.28;;;2.70;;
78854;SDS011;68206;59.956;30.234;2023-11-19T05:37:36;4.00;;;2.20;;
78854;SDS011;68206;59.956;30.234;2023-11-19T05:40:05;6.43;;;2.55;;
78854;SDS011;68206;59.956;30.234;2023-11-19T05:42:45;8.77;;;3.20;;
78854;SDS011;68206;59.956;30.234;2023-11-19T05:45:14;4.78;;;1.98;;
78854;SDS011;68206;59.956;30.234;2023-11-19T05:47:42;3.63;;;2.00;;
78854;SDS011;68206;59.956;30.234;2023-11-19T05:50:11;11.30;;;2.17;;
78854;SDS011;68206;59.956;30.234;2023-11-19T05:52:39;2.90;;;1.90;;
78854;SDS011;68206;59.956;30.234;2023-11-19T05:55:07;7.50;;;2.20;;
78854;SDS011;68206;59.956;30.234;2023-11-19T05:57:37;3.35;;;1.73;;
78854;SDS011;68206;59.956;30.234;2023-11-19T06:00:11;8.15;;;2.65;;
78854;SDS011;68206;59.956;30.234;2023-11-19T06:02:42;8.65;;;2.40;;
78854;SDS011;68206;59.956;30.234;2023-11-19T06:05:10;9.30;;;2.38;;
78854;SDS011;68206;59.956;30.234;2023-11-19T06:07:39;4.03;;;2.42;;
78854;SDS011;68206;59.956;30.234;2023-11-19T06:10:08;3.13;;;1.90;;
78854;SDS011;68206;59.956;30.234;2023-11-19T06:12:38;4.65;;;2.20;;
78854;SDS011;68206;59.956;30.234;2023-11-19T06:15:08;7.28;;;2.03;;
78854;SDS011;68206;59.956;30.234;2023-11-19T06:17:38;4.53;;;1.85;;
78854;SDS011;68206;59.956;30.234;2023-11-19T06:20:07;7.40;;;2.65;;
78854;SDS011;68206;59.956;30.234;2023-11-19T06:22:39;2.78;;;2.10;;
78854;SDS011;68206;59.956;30.234;2023-11-19T06:25:09;11.30;;;2.90;;
78854;SDS011;68206;59.956;30.234;2023-11-19T06:27:39;3.75;;;1.70;;
78854;SDS011;68206;59.956;30.234;2023-11-19T06:30:07;8.48;;;2.92;;
78854;SDS011;68206;59.956;30.234;2023-11-19T06:32:36;4.95;;;2.38;;
78854;SDS011;68206;59.956;30.234;2023-11-19T06:35:07;11.70;;;2.60;;
78854;SDS011;68206;59.956;30.234;2023-11-19T06:37:38;4.22;;;2.38;;
78854;SDS011;68206;59.956;30.234;2023-11-19T06:40:07;5.32;;;2.42;;
78854;SDS011;68206;59.956;30.234;2023-11-19T06:42:36;6.55;;;2.60;;
78854;SDS011;68206;59.956;30.234;2023-11-19T06:45:05;10.10;;;3.15;;
78854;SDS011;68206;59.956;30.234;2023-11-19T06:47:34;3.80;;;2.13;;
78854;SDS011;68206;59.956;30.234;2023-11-19T06:50:04;7.85;;;2.67;;
78854;SDS011;68206;59.956;30.234;2023-11-19T06:52:34;5.63;;;2.50;;
78854;SDS011;68206;59.956;30.234;2023-11-19T06:55:04;7.28;;;2.88;;
78854;SDS011;68206;59.956;30.234;2023-11-19T06:57:34;7.75;;;2.78;;
78854;SDS011;68206;59.956;30.234;2023-11-19T07:00:03;9.98;;;2.63;;
78854;SDS011;68206;59.956;30.234;2023-11-19T07:02:35;5.03;;;2.92;;
78854;SDS011;68206;59.956;30.234;2023-11-19T07:05:05;5.45;;;2.63;;
78854;SDS011;68206;59.956;30.234;2023-11-19T07:07:35;8.45;;;2.40;;
78854;SDS011;68206;59.956;30.234;2023-11-19T07:10:03;6.75;;;2.03;;
78854;SDS011;68206;59.956;30.234;2023-11-19T07:12:36;11.73;;;3.38;;
78854;SDS011;68206;59.956;30.234;2023-11-19T07:15:05;5.72;;;2.72;;
78854;SDS011;68206;59.956;30.234;2023-11-19T07:17:34;6.38;;;2.58;;
78854;SDS011;68206;59.956;30.234;2023-11-19T07:20:03;4.60;;;2.42;;
78854;SDS011;68206;59.956;30.234;2023-11-19T07:22:34;9.02;;;2.97;;
78854;SDS011;68206;59.956;30.234;2023-11-19T07:25:05;4.07;;;2.35;;
78854;SDS011;68206;59.956;30.234;2023-11-19T07:27:34;5.32;;;2.45;;
78854;SDS011;68206;59.956;30.234;2023-11-19T07:30:03;5.10;;;2.58;;
78854;SDS011;68206;59.956;30.234;2023-11-19T07:32:32;9.43;;;3.25;;
78854;SDS011;68206;59.956;30.234;2023-11-19T07:35:00;10.68;;;3.35;;
78854;SDS011;68206;59.956;30.234;2023-11-19T07:37:30;9.05;;;2.65;;
78854;SDS011;68206;59.956;30.234;2023-11-19T07:39:59;9.38;;;3.58;;
78854;SDS011;68206;59.956;30.234;2023-11-19T07:42:28;7.35;;;2.53;;
78854;SDS011;68206;59.956;30.234;2023-11-19T07:44:58;4.38;;;2.33;;
78854;SDS011;68206;59.956;30.234;2023-11-19T07:47:26;11.50;;;3.00;;
78854;SDS011;68206;59.956;30.234;2023-11-19T07:49:55;7.70;;;2.65;;
78854;SDS011;68206;59.956;30.234;2023-11-19T07:52:24;9.98;;;2.53;;
78854;SDS011;68206;59.956;30.234;2023-11-19T07:54:53;14.00;;;3.50;;
78854;SDS011;68206;59.956;30.234;2023-11-19T07:57:22;9.90;;;2.47;;
78854;SDS011;68206;59.956;30.234;2023-11-19T07:59:51;5.40;;;2.70;;
78854;SDS011;68206;59.956;30.234;2023-11-19T08:02:20;5.15;;;2.85;;
78854;SDS011;68206;59.956;30.234;2023-11-19T08:04:50;7.47;;;2.90;;
78854;SDS011;68206;59.956;30.234;2023-11-19T08:07:22;6.15;;;3.20;;
78854;SDS011;68206;59.956;30.234;2023-11-19T08:09:50;12.85;;;3.25;;
78854;SDS011;68206;59.956;30.234;2023-11-19T08:12:20;12.18;;;3.33;;
78854;SDS011;68206;59.956;30.234;2023-11-19T08:14:49;9.27;;;2.42;;
78854;SDS011;68206;59.956;30.234;2023-11-19T08:17:17;11.55;;;3.47;;
78854;SDS011;68206;59.956;30.234;2023-11-19T08:19:46;7.40;;;2.47;;
78854;SDS011;68206;59.956;30.234;2023-11-19T08:22:14;8.23;;;3.10;;
78854;SDS011;68206;59.956;30.234;2023-11-19T08:24:43;6.20;;;2.90;;
78854;SDS011;68206;59.956;30.234;2023-11-19T08:27:11;3.55;;;2.20;;
78854;SDS011;68206;59.956;30.234;2023-11-19T08:29:42;12.05;;;3.10;;
78854;SDS011;68206;59.956;30.234;2023-11-19T08:32:10;9.88;;;3.97;;
78854;SDS011;68206;59.956;30.234;2023-11-19T08:34:38;11.00;;;3.63;;
78854;SDS011;68206;59.956;30.234;2023-11-19T08:37:07;8.95;;;2.92;;
78854;SDS011;68206;59.956;30.234;2023-11-19T08:39:35;5.68;;;3.25;;
78854;SDS011;68206;59.956;30.234;2023-11-19T08:42:04;9.55;;;3.10;;
78854;SDS011;68206;59.956;30.234;2023-11-19T08:44:33;7.82;;;3.42;;
78854;SDS011;68206;59.956;30.234;2023-11-19T08:47:03;11.63;;;3.38;;
78854;SDS011;68206;59.956;30.234;2023-11-19T08:49:32;7.80;;;3.85;;
78854;SDS011;68206;59.956;30.234;2023-11-19T08:52:00;14.73;;;4.32;;
78854;SDS011;68206;59.956;30.234;2023-11-19T08:54:28;13.82;;;4.15;;
78854;SDS011;68206;59.956;30.234;2023-11-19T08:56:57;7.43;;;3.92;;
78854;SDS011;68206;59.956;30.234;2023-11-19T08:59:26;7.28;;;3.55;;
78854;SDS011;68206;59.956;30.234;2023-11-19T09:01:54;10.23;;;3.55;;
78854;SDS011;68206;59.956;30.234;2023-11-19T09:04:24;8.65;;;3.60;;
78854;SDS011;68206;59.956;30.234;2023-11-19T09:06:52;7.25;;;3.78;;
78854;SDS011;68206;59.956;30.234;2023-11-19T09:09:22;20.00;;;4.53;;
78854;SDS011;68206;59.956;30.234;2023-11-19T09:11:50;9.35;;;4.35;;
78854;SDS011;68206;59.956;30.234;2023-11-19T09:14:18;15.27;;;4.05;;
78854;SDS011;68206;59.956;30.234;2023-11-19T09:16:50;16.55;;;3.83;;
78854;SDS011;68206;59.956;30.234;2023-11-19T09:19:19;12.25;;;3.95;;
78854;SDS011;68206;59.956;30.234;2023-11-19T09:21:48;10.55;;;3.67;;
78854;SDS011;68206;59.956;30.234;2023-11-19T09:24:17;11.95;;;4.03;;
78854;SDS011;68206;59.956;30.234;2023-11-19T09:26:45;7.72;;;4.03;;
78854;SDS011;68206;59.956;30.234;2023-11-19T09:29:14;10.02;;;4.97;;
78854;SDS011;68206;59.956;30.234;2023-11-19T09:31:43;12.85;;;4.68;;
78854;SDS011;68206;59.956;30.234;2023-11-19T09:34:11;8.20;;;4.15;;
78854;SDS011;68206;59.956;30.234;2023-11-19T09:36:40;10.75;;;4.10;;
78854;SDS011;68206;59.956;30.234;2023-11-19T09:39:12;12.43;;;4.70;;
78854;SDS011;68206;59.956;30.234;2023-11-19T09:41:44;9.30;;;4.35;;
78854;SDS011;68206;59.956;30.234;2023-11-19T09:44:13;7.45;;;3.70;;
78854;SDS011;68206;59.956;30.234;2023-11-19T09:46:45;12.35;;;3.63;;
78854;SDS011;68206;59.956;30.234;2023-11-19T09:49:16;14.55;;;4.88;;
78854;SDS011;68206;59.956;30.234;2023-11-19T09:52:03;9.90;;;3.10;;
78854;SDS011;68206;59.956;30.234;2023-11-19T09:54:33;18.00;;;4.07;;
78854;SDS011;68206;59.956;30.234;2023-11-19T09:57:02;12.50;;;3.60;;
78854;SDS011;68206;59.956;30.234;2023-11-19T09:59:32;11.70;;;3.30;;
78854;SDS011;68206;59.956;30.234;2023-11-19T10:02:01;13.75;;;3.83;;
78854;SDS011;68206;59.956;30.234;2023-11-19T10:04:32;10.85;;;3.78;;
78854;SDS011;68206;59.956;30.234;2023-11-19T10:07:04;8.20;;;3.15;;
78854;SDS011;68206;59.956;30.234;2023-11-19T10:09:34;13.60;;;3.60;;
78854;SDS011;68206;59.956;30.234;2023-11-19T10:12:02;8.98;;;3.78;;
78854;SDS011;68206;59.956;30.234;2023-11-19T10:14:32;12.05;;;3.47;;
78854;SDS011;68206;59.956;30.234;2023-11-19T10:17:05;13.93;;;3.80;;
78854;SDS011;68206;59.956;30.234;2023-11-19T10:19:36;14.52;;;4.13;;
78854;SDS011;68206;59.956;30.234;2023-11-19T10:22:04;14.00;;;4.03;;
78854;SDS011;68206;59.956;30.234;2023-11-19T10:24:34;9.30;;;3.72;;
78854;SDS011;68206;59.956;30.234;2023-11-19T10:27:09;13.40;;;4.13;;
78854;SDS011;68206;59.956;30.234;2023-11-19T10:29:37;14.18;;;4.00;;
78854;SDS011;68206;59.956;30.234;2023-11-19T10:32:06;13.82;;;4.25;;
78854;SDS011;68206;59.956;30.234;2023-11-19T10:34:57;12.55;;;3.13;;
78854;SDS011;68206;59.956;30.234;2023-11-19T10:37:33;7.70;;;3.08;;
78854;SDS011;68206;59.956;30.234;2023-11-19T10:40:06;6.55;;;3.63;;
78854;SDS011;68206;59.956;30.234;2023-11-19T10:42:37;8.48;;;3.65;;
78854;SDS011;68206;59.956;30.234;2023-11-19T10:45:11;10.75;;;3.80;;
78854;SDS011;68206;59.956;30.234;2023-11-19T10:47:51;17.25;;;4.78;;
78854;SDS011;68206;59.956;30.234;2023-11-19T10:50:20;11.55;;;3.33;;
78854;SDS011;68206;59.956;30.234;2023-11-19T10:52:50;7.70;;;3.40;;
78854;SDS011;68206;59.956;30.234;2023-11-19T10:55:26;6.50;;;2.50;;
78854;SDS011;68206;59.956;30.234;2023-11-19T10:57:59;4.95;;;2.53;;
78854;SDS011;68206;59.956;30.234;2023-11-19T11:00:29;11.93;;;3.08;;
78854;SDS011;68206;59.956;30.234;2023-11-19T11:03:00;7.93;;;2.97;;
78854;SDS011;68206;59.956;30.234;2023-11-19T11:05:32;6.40;;;2.60;;
78854;SDS011;68206;59.956;30.234;2023-11-19T11:08:01;4.80;;;2.45;;
78854;SDS011;68206;59.956;30.234;2023-11-19T11:10:34;8.30;;;3.05;;
78854;SDS011;68206;59.956;30.234;2023-11-19T11:13:23;7.43;;;2.80;;
78854;SDS011;68206;59.956;30.234;2023-11-19T11:15:54;5.03;;;2.30;;
78854;SDS011;68206;59.956;30.234;2023-11-19T11:18:25;11.85;;;3.55;;
78854;SDS011;68206;59.956;30.234;2023-11-19T11:21:00;4.13;;;2.20;;
78854;SDS011;68206;59.956;30.234;2023-11-19T11:23:40;9.38;;;2.75;;
78854;SDS011;68206;59.956;30.234;2023-11-19T11:26:39;9.05;;;2.60;;
78854;SDS011;68206;59.956;30.234;2023-11-19T11:29:24;15.70;;;3.22;;
78854;SDS011;68206;59.956;30.234;2023-11-19T11:32:01;11.05;;;3.38;;
78854;SDS011;68206;59.956;30.234;2023-11-19T11:35:01;10.13;;;2.88;;
78854;SDS011;68206;59.956;30.234;2023-11-19T11:37:43;14.77;;;3.03;;
78854;SDS011;68206;59.956;30.234;2023-11-19T11:40:14;11.80;;;3.25;;
78854;SDS011;68206;59.956;30.234;2023-11-19T11:42:46;7.47;;;2.53;;
78854;SDS011;68206;59.956;30.234;2023-11-19T11:45:15;8.90;;;3.40;;
78854;SDS011;68206;59.956;30.234;2023-11-19T11:48:11;16.60;;;4.38;;
78854;SDS011;68206;59.956;30.234;2023-11-19T11:50:53;6.80;;;3.03;;
78854;SDS011;68206;59.956;30.234;2023-11-19T11:53:24;6.93;;;3.45;;
78854;SDS011;68206;59.956;30.234;2023-11-19T11:55:54;7.50;;;3.00;;
78854;SDS011;68206;59.956;30.234;2023-11-19T11:58:28;7.78;;;3.97;;
78854;SDS011;68206;59.956;30.234;2023-11-19T12:00:59;9.23;;;3.78;;
78854;SDS011;68206;59.956;30.234;2023-11-19T12:03:30;9.85;;;3.25;;
78854;SDS011;68206;59.956;30.234;2023-11-19T12:05:59;9.05;;;3.10;;
78854;SDS011;68206;59.956;30.234;2023-11-19T12:08:28;21.27;;;3.55;;
78854;SDS011;68206;59.956;30.234;2023-11-19T12:11:18;12.25;;;2.72;;
78854;SDS011;68206;59.956;30.234;2023-11-19T12:13:54;11.25;;;2.80;;
78854;SDS011;68206;59.956;30.234;2023-11-19T12:16:25;6.88;;;2.78;;
78854;SDS011;68206;59.956;30.234;2023-11-19T12:18:56;5.60;;;2.70;;
78854;SDS011;68206;59.956;30.234;2023-11-19T12:21:31;10.88;;;2.65;;
78854;SDS011;68206;59.956;30.234;2023-11-19T12:23:59;8.20;;;2.78;;
78854;SDS011;68206;59.956;30.234;2023-11-19T12:26:35;17.45;;;3.97;;
78854;SDS011;68206;59.956;30.234;2023-11-19T12:29:09;10.27;;;2.75;;
78854;SDS011;68206;59.956;30.234;2023-11-19T12:31:37;4.05;;;2.50;;
78854;SDS011;68206;59.956;30.234;2023-11-19T12:34:07;6.68;;;3.53;;
78854;SDS011;68206;59.956;30.234;2023-11-19T12:36:40;5.32;;;2.97;;
78854;SDS011;68206;59.956;30.234;2023-11-19T12:39:09;7.55;;;3.20;;
78854;SDS011;68206;59.956;30.234;2023-11-19T12:41:51;7.88;;;3.20;;
78854;SDS011;68206;59.956;30.234;2023-11-19T12:47:00;6.97;;;2.92;;
78854;SDS011;68206;59.956;30.234;2023-11-19T12:49:33;11.23;;;3.53;;
78854;SDS011;68206;59.956;30.234;2023-11-19T12:52:02;9.65;;;3.08;;
78854;SDS011;68206;59.956;30.234;2023-11-19T12:54:39;6.45;;;2.75;;
78854;SDS011;68206;59.956;30.234;2023-11-19T12:57:07;5.63;;;2.92;;
78854;SDS011;68206;59.956;30.234;2023-11-19T12:59:37;10.88;;;3.65;;
78854;SDS011;68206;59.956;30.234;2023-11-19T13:02:06;12.45;;;3.92;;
78854;SDS011;68206;59.956;30.234;2023-11-19T13:04:34;7.68;;;3.65;;
78854;SDS011;68206;59.956;30.234;2023-11-19T13:07:02;8.05;;;3.10;;
78854;SDS011;68206;59.956;30.234;2023-11-19T13:09:32;8.07;;;3.33;;
78854;SDS011;68206;59.956;30.234;2023-11-19T13:12:11;10.75;;;3.10;;
78854;SDS011;68206;59.956;30.234;2023-11-19T13:14:42;7.63;;;2.75;;
78854;SDS011;68206;59.956;30.234;2023-11-19T13:17:13;9.23;;;3.05;;
78854;SDS011;68206;59.956;30.234;2023-11-19T13:19:42;6.30;;;2.72;;
78854;SDS011;68206;59.956;30.234;2023-11-19T13:22:10;7.78;;;3.08;;
78854;SDS011;68206;59.956;30.234;2023-11-19T13:24:38;6.78;;;2.67;;
78854;SDS011;68206;59.956;30.234;2023-11-19T13:27:09;6.72;;;2.72;;
78854;SDS011;68206;59.956;30.234;2023-11-19T13:29:38;7.22;;;2.55;;
78854;SDS011;68206;59.956;30.234;2023-11-19T13:32:08;7.78;;;2.97;;
78854;SDS011;68206;59.956;30.234;2023-11-19T13:34:36;4.63;;;2.60;;
78854;SDS011;68206;59.956;30.234;2023-11-19T13:37:05;8.20;;;2.97;;
78854;SDS011;68206;59.956;30.234;2023-11-19T13:39:34;6.00;;;3.00;;
78854;SDS011;68206;59.956;30.234;2023-11-19T13:42:02;9.10;;;2.95;;
78854;SDS011;68206;59.956;30.234;2023-11-19T13:44:34;11.55;;;2.95;;
78854;SDS011;68206;59.956;30.234;2023-11-19T13:47:02;7.03;;;3.50;;
78854;SDS011;68206;59.956;30.234;2023-11-19T13:49:32;6.63;;;2.72;;
78854;SDS011;68206;59.956;30.234;2023-11-19T13:52:01;8.68;;;2.72;;
78854;SDS011;68206;59.956;30.234;2023-11-19T13:54:29;11.65;;;2.63;;
78854;SDS011;68206;59.956;30.234;2023-11-19T13:56:57;4.90;;;2.90;;
78854;SDS011;68206;59.956;30.234;2023-11-19T13:59:25;6.95;;;3.40;;
78854;SDS011;68206;59.956;30.234;2023-11-19T14:01:54;7.70;;;3.30;;
78854;SDS011;68206;59.956;30.234;2023-11-19T14:04:22;8.63;;;3.40;;
78854;SDS011;68206;59.956;30.234;2023-11-19T14:06:53;4.32;;;2.63;;
78854;SDS011;68206;59.956;30.234;2023-11-19T14:09:22;10.05;;;2.83;;
78854;SDS011;68206;59.956;30.234;2023-11-19T14:11:50;12.32;;;4.07;;
78854;SDS011;68206;59.956;30.234;2023-11-19T14:14:19;4.78;;;3.10;;
78854;SDS011;68206;59.956;30.234;2023-11-19T14:16:47;8.95;;;3.33;;
78854;SDS011;68206;59.956;30.234;2023-11-19T14:19:15;7.95;;;3.30;;
78854;SDS011;68206;59.956;30.234;2023-11-19T14:21:43;8.48;;;3.53;;
78854;SDS011;68206;59.956;30.234;2023-11-19T14:24:16;7.28;;;3.47;;
78854;SDS011;68206;59.956;30.234;2023-11-19T14:26:45;7.88;;;3.58;;
78854;SDS011;68206;59.956;30.234;2023-11-19T14:29:13;8.95;;;2.90;;
78854;SDS011;68206;59.956;30.234;2023-11-19T14:34:09;6.65;;;2.58;;
78854;SDS011;68206;59.956;30.234;2023-11-19T14:36:37;8.48;;;3.33;;
78854;SDS011;68206;59.956;30.234;2023-11-19T14:39:06;7.18;;;3.53;;
78854;SDS011;68206;59.956;30.234;2023-11-19T14:41:35;6.03;;;3.13;;
78854;SDS011;68206;59.956;30.234;2023-11-19T14:44:04;9.50;;;2.92;;
78854;SDS011;68206;59.956;30.234;2023-11-19T14:46:33;8.00;;;3.55;;
78854;SDS011;68206;59.956;30.234;2023-11-19T14:49:01;11.82;;;3.25;;
78854;SDS011;68206;59.956;30.234;2023-11-19T14:51:30;9.68;;;3.13;;
78854;SDS011;68206;59.956;30.234;2023-11-19T14:53:59;32.20;;;13.20;;
78854;SDS011;68206;59.956;30.234;2023-11-19T14:56:27;7.15;;;3.97;;